sensor_id;sensor_type;location;lat;lon;timestamp;P1;durP1;ratioP1;P2;durP2;ratioP2
15354;SDS011;7777;52.254;9.618;2023-09-30T00:02:17;14.07;;;4.13;;
15354;SDS011;7777;52.254;9.618;2023-09-30T00:04:42;11.30;;;3.60;;
15354;SDS011;7777;52.254;9.618;2023-09-30T00:07:08;10.53;;;3.90;;
15354;SDS011;7777;52.254;9.618;2023-09-30T00:09:34;12.27;;;4.47;;
15354;SDS011;7777;52.254;9.618;2023-09-30T00:12:00;14.80;;;4.17;;
15354;SDS011;7777;52.254;9.618;2023-09-30T00:14:26;13.93;;;4.23;;
15354;SDS011;7777;52.254;9.618;2023-09-30T00:16:52;15.67;;;4.47;;
15354;SDS011;7777;52.254;9.618;2023-09-30T00:19:17;14.20;;;4.10;;
15354;SDS011;7777;52.254;9.618;2023-09-30T00:21:43;12.77;;;4.27;;
15354;SDS011;7777;52.254;9.618;2023-09-30T00:24:09;14.50;;;4.13;;
15354;SDS011;7777;52.254;9.618;2023-09-30T00:26:34;14.23;;;3.40;;
15354;SDS011;7777;52.254;9.618;2023-09-30T00:29:01;15.60;;;3.70;;
15354;SDS011;7777;52.254;9.618;2023-09-30T00:31:30;13.87;;;4.10;;
15354;SDS011;7777;52.254;9.618;2023-09-30T00:33:57;12.97;;;4.17;;
15354;SDS011;7777;52.254;9.618;2023-09-30T00:36:24;14.07;;;3.80;;
15354;SDS011;7777;52.254;9.618;2023-09-30T00:38:50;10.53;;;3.57;;
15354;SDS011;7777;52.254;9.618;2023-09-30T00:41:17;16.80;;;4.90;;
15354;SDS011;7777;52.254;9.618;2023-09-30T00:43:43;13.30;;;3.90;;
15354;SDS011;7777;52.254;9.618;2023-09-30T00:48:55;14.40;;;4.43;;
15354;SDS011;7777;52.254;9.618;2023-09-30T00:51:23;20.77;;;4.57;;
15354;SDS011;7777;52.254;9.618;2023-09-30T00:53:50;17.63;;;4.77;;
15354;SDS011;7777;52.254;9.618;2023-09-30T00:56:18;16.33;;;4.33;;
15354;SDS011;7777;52.254;9.618;2023-09-30T00:58:45;18.70;;;4.73;;
15354;SDS011;7777;52.254;9.618;2023-09-30T01:01:13;14.60;;;4.37;;
15354;SDS011;7777;52.254;9.618;2023-09-30T01:03:39;17.43;;;4.00;;
15354;SDS011;7777;52.254;9.618;2023-09-30T01:06:05;16.00;;;4.33;;
15354;SDS011;7777;52.254;9.618;2023-09-30T01:08:31;17.33;;;3.73;;
15354;SDS011;7777;52.254;9.618;2023-09-30T01:10:59;12.90;;;3.40;;
15354;SDS011;7777;52.254;9.618;2023-09-30T01:13:36;9.77;;;3.90;;
15354;SDS011;7777;52.254;9.618;2023-09-30T01:16:09;14.27;;;3.87;;
15354;SDS011;7777;52.254;9.618;2023-09-30T01:18:36;11.73;;;3.40;;
15354;SDS011;7777;52.254;9.618;2023-09-30T01:21:04;12.77;;;3.90;;
15354;SDS011;7777;52.254;9.618;2023-09-30T01:23:35;12.53;;;3.20;;
15354;SDS011;7777;52.254;9.618;2023-09-30T01:26:01;15.43;;;3.97;;
15354;SDS011;7777;52.254;9.618;2023-09-30T01:28:29;11.13;;;3.53;;
15354;SDS011;7777;52.254;9.618;2023-09-30T01:30:56;12.27;;;4.10;;
15354;SDS011;7777;52.254;9.618;2023-09-30T01:33:22;13.90;;;4.33;;
15354;SDS011;7777;52.254;9.618;2023-09-30T01:35:49;11.43;;;3.30;;
15354;SDS011;7777;52.254;9.618;2023-09-30T01:38:15;16.40;;;4.57;;
15354;SDS011;7777;52.254;9.618;2023-09-30T01:40:41;13.07;;;3.47;;
15354;SDS011;7777;52.254;9.618;2023-09-30T01:43:07;11.67;;;4.00;;
15354;SDS011;7777;52.254;9.618;2023-09-30T01:45:33;14.43;;;4.10;;
15354;SDS011;7777;52.254;9.618;2023-09-30T01:48:00;11.97;;;3.13;;
15354;SDS011;7777;52.254;9.618;2023-09-30T01:50:27;15.47;;;3.77;;
15354;SDS011;7777;52.254;9.618;2023-09-30T01:52:53;13.40;;;3.87;;
15354;SDS011;7777;52.254;9.618;2023-09-30T01:55:19;12.17;;;3.60;;
15354;SDS011;7777;52.254;9.618;2023-09-30T01:57:45;14.23;;;3.83;;
15354;SDS011;7777;52.254;9.618;2023-09-30T02:00:11;15.03;;;4.20;;
15354;SDS011;7777;52.254;9.618;2023-09-30T02:02:37;10.23;;;3.33;;
15354;SDS011;7777;52.254;9.618;2023-09-30T02:05:04;15.13;;;4.10;;
15354;SDS011;7777;52.254;9.618;2023-09-30T02:07:33;9.57;;;3.30;;
15354;SDS011;7777;52.254;9.618;2023-09-30T02:09:59;11.00;;;3.13;;
15354;SDS011;7777;52.254;9.618;2023-09-30T02:12:27;11.73;;;4.03;;
15354;SDS011;7777;52.254;9.618;2023-09-30T02:14:55;13.27;;;4.27;;
15354;SDS011;7777;52.254;9.618;2023-09-30T02:17:23;10.13;;;3.30;;
15354;SDS011;7777;52.254;9.618;2023-09-30T02:19:49;13.53;;;3.83;;
15354;SDS011;7777;52.254;9.618;2023-09-30T02:22:15;13.47;;;3.87;;
15354;SDS011;7777;52.254;9.618;2023-09-30T02:24:40;11.27;;;4.23;;
15354;SDS011;7777;52.254;9.618;2023-09-30T02:27:06;14.83;;;3.90;;
15354;SDS011;7777;52.254;9.618;2023-09-30T02:29:33;13.13;;;3.83;;
15354;SDS011;7777;52.254;9.618;2023-09-30T02:31:59;13.97;;;3.97;;
15354;SDS011;7777;52.254;9.618;2023-09-30T02:34:24;11.10;;;4.57;;
15354;SDS011;7777;52.254;9.618;2023-09-30T02:36:50;13.07;;;4.23;;
15354;SDS011;7777;52.254;9.618;2023-09-30T02:39:16;16.83;;;5.10;;
15354;SDS011;7777;52.254;9.618;2023-09-30T02:41:42;17.03;;;5.17;;
15354;SDS011;7777;52.254;9.618;2023-09-30T02:44:08;11.70;;;4.43;;
15354;SDS011;7777;52.254;9.618;2023-09-30T02:46:34;16.20;;;5.20;;
15354;SDS011;7777;52.254;9.618;2023-09-30T02:49:03;14.60;;;4.20;;
15354;SDS011;7777;52.254;9.618;2023-09-30T02:51:29;12.30;;;4.17;;
15354;SDS011;7777;52.254;9.618;2023-09-30T02:53:55;13.90;;;5.10;;
15354;SDS011;7777;52.254;9.618;2023-09-30T02:56:21;14.73;;;4.93;;
15354;SDS011;7777;52.254;9.618;2023-09-30T02:58:49;14.53;;;5.13;;
15354;SDS011;7777;52.254;9.618;2023-09-30T03:01:16;13.70;;;5.33;;
15354;SDS011;7777;52.254;9.618;2023-09-30T03:03:43;15.27;;;4.20;;
15354;SDS011;7777;52.254;9.618;2023-09-30T03:06:12;16.00;;;4.60;;
15354;SDS011;7777;52.254;9.618;2023-09-30T03:08:39;13.47;;;4.87;;
15354;SDS011;7777;52.254;9.618;2023-09-30T03:11:06;17.77;;;5.70;;
15354;SDS011;7777;52.254;9.618;2023-09-30T03:13:32;12.33;;;4.43;;
15354;SDS011;7777;52.254;9.618;2023-09-30T03:15:58;14.40;;;5.37;;
15354;SDS011;7777;52.254;9.618;2023-09-30T03:18:26;13.00;;;4.73;;
15354;SDS011;7777;52.254;9.618;2023-09-30T03:20:57;11.10;;;3.97;;
15354;SDS011;7777;52.254;9.618;2023-09-30T03:23:28;16.57;;;4.63;;
15354;SDS011;7777;52.254;9.618;2023-09-30T03:25:56;14.80;;;4.70;;
15354;SDS011;7777;52.254;9.618;2023-09-30T03:28:23;15.13;;;4.90;;
15354;SDS011;7777;52.254;9.618;2023-09-30T03:30:49;15.57;;;5.50;;
15354;SDS011;7777;52.254;9.618;2023-09-30T03:33:15;16.70;;;4.23;;
15354;SDS011;7777;52.254;9.618;2023-09-30T03:35:42;14.60;;;4.37;;
15354;SDS011;7777;52.254;9.618;2023-09-30T03:38:07;15.17;;;4.43;;
15354;SDS011;7777;52.254;9.618;2023-09-30T03:40:38;14.30;;;4.93;;
15354;SDS011;7777;52.254;9.618;2023-09-30T03:43:05;14.43;;;4.50;;
15354;SDS011;7777;52.254;9.618;2023-09-30T03:45:31;11.57;;;4.20;;
15354;SDS011;7777;52.254;9.618;2023-09-30T03:48:02;13.17;;;4.43;;
15354;SDS011;7777;52.254;9.618;2023-09-30T03:50:29;13.33;;;4.73;;
15354;SDS011;7777;52.254;9.618;2023-09-30T03:53:01;12.80;;;5.10;;
15354;SDS011;7777;52.254;9.618;2023-09-30T03:55:29;10.97;;;4.47;;
15354;SDS011;7777;52.254;9.618;2023-09-30T03:57:57;12.90;;;4.47;;
15354;SDS011;7777;52.254;9.618;2023-09-30T04:00:23;20.90;;;4.93;;
15354;SDS011;7777;52.254;9.618;2023-09-30T04:02:50;13.63;;;4.83;;
15354;SDS011;7777;52.254;9.618;2023-09-30T04:05:20;12.03;;;4.70;;
15354;SDS011;7777;52.254;9.618;2023-09-30T04:07:51;13.30;;;4.20;;
15354;SDS011;7777;52.254;9.618;2023-09-30T04:10:17;11.93;;;4.83;;
15354;SDS011;7777;52.254;9.618;2023-09-30T04:12:43;12.67;;;4.07;;
15354;SDS011;7777;52.254;9.618;2023-09-30T04:15:09;12.73;;;3.80;;
15354;SDS011;7777;52.254;9.618;2023-09-30T04:17:37;14.37;;;4.47;;
15354;SDS011;7777;52.254;9.618;2023-09-30T04:20:04;12.83;;;4.07;;
15354;SDS011;7777;52.254;9.618;2023-09-30T04:22:34;14.10;;;4.63;;
15354;SDS011;7777;52.254;9.618;2023-09-30T04:25:00;18.07;;;5.60;;
15354;SDS011;7777;52.254;9.618;2023-09-30T04:27:26;15.10;;;4.87;;
15354;SDS011;7777;52.254;9.618;2023-09-30T04:29:53;14.73;;;3.90;;
15354;SDS011;7777;52.254;9.618;2023-09-30T04:32:20;14.37;;;4.57;;
15354;SDS011;7777;52.254;9.618;2023-09-30T04:34:45;15.20;;;4.13;;
15354;SDS011;7777;52.254;9.618;2023-09-30T04:37:12;11.63;;;4.17;;
15354;SDS011;7777;52.254;9.618;2023-09-30T04:39:39;15.07;;;4.40;;
15354;SDS011;7777;52.254;9.618;2023-09-30T04:42:05;14.90;;;4.27;;
15354;SDS011;7777;52.254;9.618;2023-09-30T04:44:31;13.87;;;4.00;;
15354;SDS011;7777;52.254;9.618;2023-09-30T04:46:57;15.23;;;4.17;;
15354;SDS011;7777;52.254;9.618;2023-09-30T04:49:23;17.87;;;4.40;;
15354;SDS011;7777;52.254;9.618;2023-09-30T04:52:07;18.83;;;5.13;;
15354;SDS011;7777;52.254;9.618;2023-09-30T04:54:57;14.50;;;4.47;;
15354;SDS011;7777;52.254;9.618;2023-09-30T04:57:23;11.50;;;3.37;;
15354;SDS011;7777;52.254;9.618;2023-09-30T04:59:48;12.07;;;3.63;;
15354;SDS011;7777;52.254;9.618;2023-09-30T05:02:14;15.33;;;3.97;;
15354;SDS011;7777;52.254;9.618;2023-09-30T05:04:43;11.00;;;3.57;;
15354;SDS011;7777;52.254;9.618;2023-09-30T05:07:09;9.13;;;3.63;;
15354;SDS011;7777;52.254;9.618;2023-09-30T05:09:35;11.90;;;4.00;;
15354;SDS011;7777;52.254;9.618;2023-09-30T05:12:01;16.43;;;4.57;;
15354;SDS011;7777;52.254;9.618;2023-09-30T05:14:29;12.00;;;3.97;;
15354;SDS011;7777;52.254;9.618;2023-09-30T05:16:56;12.20;;;3.90;;
15354;SDS011;7777;52.254;9.618;2023-09-30T05:19:22;10.17;;;3.63;;
15354;SDS011;7777;52.254;9.618;2023-09-30T05:21:48;16.70;;;5.20;;
15354;SDS011;7777;52.254;9.618;2023-09-30T05:24:14;12.20;;;4.23;;
15354;SDS011;7777;52.254;9.618;2023-09-30T05:26:40;13.03;;;4.60;;
15354;SDS011;7777;52.254;9.618;2023-09-30T05:29:07;11.47;;;4.67;;
15354;SDS011;7777;52.254;9.618;2023-09-30T05:31:33;11.43;;;4.37;;
15354;SDS011;7777;52.254;9.618;2023-09-30T05:33:59;14.33;;;4.67;;
15354;SDS011;7777;52.254;9.618;2023-09-30T05:36:27;11.70;;;4.60;;
15354;SDS011;7777;52.254;9.618;2023-09-30T05:38:54;13.50;;;4.30;;
15354;SDS011;7777;52.254;9.618;2023-09-30T05:41:20;15.57;;;4.60;;
15354;SDS011;7777;52.254;9.618;2023-09-30T05:43:47;14.17;;;4.23;;
15354;SDS011;7777;52.254;9.618;2023-09-30T05:46:14;12.20;;;4.37;;
15354;SDS011;7777;52.254;9.618;2023-09-30T05:48:42;9.33;;;4.63;;
15354;SDS011;7777;52.254;9.618;2023-09-30T05:51:08;14.07;;;5.40;;
15354;SDS011;7777;52.254;9.618;2023-09-30T05:53:33;14.20;;;4.00;;
15354;SDS011;7777;52.254;9.618;2023-09-30T05:56:01;10.43;;;3.53;;
15354;SDS011;7777;52.254;9.618;2023-09-30T05:58:27;9.47;;;3.20;;
15354;SDS011;7777;52.254;9.618;2023-09-30T06:00:53;12.13;;;4.53;;
15354;SDS011;7777;52.254;9.618;2023-09-30T06:03:19;12.97;;;4.27;;
15354;SDS011;7777;52.254;9.618;2023-09-30T06:05:47;11.40;;;3.47;;
15354;SDS011;7777;52.254;9.618;2023-09-30T06:08:14;12.33;;;4.10;;
15354;SDS011;7777;52.254;9.618;2023-09-30T06:10:40;9.73;;;3.50;;
15354;SDS011;7777;52.254;9.618;2023-09-30T06:13:10;7.93;;;3.37;;
15354;SDS011;7777;52.254;9.618;2023-09-30T06:15:40;9.47;;;3.80;;
15354;SDS011;7777;52.254;9.618;2023-09-30T06:18:07;11.83;;;4.33;;
15354;SDS011;7777;52.254;9.618;2023-09-30T06:20:35;16.90;;;3.87;;
15354;SDS011;7777;52.254;9.618;2023-09-30T06:23:01;14.23;;;3.50;;
15354;SDS011;7777;52.254;9.618;2023-09-30T06:25:26;10.20;;;3.33;;
15354;SDS011;7777;52.254;9.618;2023-09-30T06:27:52;13.27;;;4.53;;
15354;SDS011;7777;52.254;9.618;2023-09-30T06:30:21;13.83;;;4.43;;
15354;SDS011;7777;52.254;9.618;2023-09-30T06:32:54;9.67;;;3.50;;
15354;SDS011;7777;52.254;9.618;2023-09-30T06:35:24;10.10;;;3.40;;
15354;SDS011;7777;52.254;9.618;2023-09-30T06:37:51;11.97;;;3.90;;
15354;SDS011;7777;52.254;9.618;2023-09-30T06:40:17;10.27;;;3.60;;
15354;SDS011;7777;52.254;9.618;2023-09-30T06:42:43;10.00;;;3.70;;
15354;SDS011;7777;52.254;9.618;2023-09-30T06:45:10;12.60;;;3.57;;
15354;SDS011;7777;52.254;9.618;2023-09-30T06:47:37;15.17;;;4.10;;
15354;SDS011;7777;52.254;9.618;2023-09-30T06:50:04;12.03;;;3.20;;
15354;SDS011;7777;52.254;9.618;2023-09-30T06:52:37;10.80;;;3.47;;
15354;SDS011;7777;52.254;9.618;2023-09-30T06:55:06;13.63;;;3.70;;
15354;SDS011;7777;52.254;9.618;2023-09-30T06:57:33;12.07;;;3.20;;
15354;SDS011;7777;52.254;9.618;2023-09-30T07:00:00;13.47;;;4.13;;
15354;SDS011;7777;52.254;9.618;2023-09-30T07:02:33;12.63;;;3.37;;
15354;SDS011;7777;52.254;9.618;2023-09-30T07:04:58;8.63;;;3.23;;
15354;SDS011;7777;52.254;9.618;2023-09-30T07:07:24;10.67;;;3.57;;
15354;SDS011;7777;52.254;9.618;2023-09-30T07:09:50;10.27;;;3.23;;
15354;SDS011;7777;52.254;9.618;2023-09-30T07:12:16;16.83;;;4.03;;
15354;SDS011;7777;52.254;9.618;2023-09-30T07:14:42;8.73;;;2.80;;
15354;SDS011;7777;52.254;9.618;2023-09-30T07:17:07;11.80;;;3.40;;
15354;SDS011;7777;52.254;9.618;2023-09-30T07:19:33;11.27;;;3.10;;
15354;SDS011;7777;52.254;9.618;2023-09-30T07:21:59;9.63;;;3.10;;
15354;SDS011;7777;52.254;9.618;2023-09-30T07:24:25;12.87;;;3.17;;
15354;SDS011;7777;52.254;9.618;2023-09-30T07:26:51;9.57;;;3.07;;
15354;SDS011;7777;52.254;9.618;2023-09-30T07:29:16;13.83;;;3.57;;
15354;SDS011;7777;52.254;9.618;2023-09-30T07:31:42;9.70;;;3.43;;
15354;SDS011;7777;52.254;9.618;2023-09-30T07:34:08;9.77;;;3.83;;
15354;SDS011;7777;52.254;9.618;2023-09-30T07:36:34;11.90;;;3.10;;
15354;SDS011;7777;52.254;9.618;2023-09-30T07:39:03;14.27;;;4.00;;
15354;SDS011;7777;52.254;9.618;2023-09-30T07:41:34;12.77;;;3.60;;
15354;SDS011;7777;52.254;9.618;2023-09-30T07:44:01;10.90;;;3.53;;
15354;SDS011;7777;52.254;9.618;2023-09-30T07:46:28;13.87;;;4.33;;
15354;SDS011;7777;52.254;9.618;2023-09-30T07:48:55;9.00;;;3.03;;
15354;SDS011;7777;52.254;9.618;2023-09-30T07:51:21;9.27;;;2.90;;
15354;SDS011;7777;52.254;9.618;2023-09-30T07:53:46;10.97;;;3.07;;
15354;SDS011;7777;52.254;9.618;2023-09-30T07:56:13;14.77;;;3.47;;
15354;SDS011;7777;52.254;9.618;2023-09-30T07:58:39;10.43;;;3.50;;
15354;SDS011;7777;52.254;9.618;2023-09-30T08:01:04;10.70;;;4.03;;
15354;SDS011;7777;52.254;9.618;2023-09-30T08:03:30;12.90;;;3.20;;
15354;SDS011;7777;52.254;9.618;2023-09-30T08:05:56;10.80;;;3.93;;
15354;SDS011;7777;52.254;9.618;2023-09-30T08:08:23;11.63;;;3.43;;
15354;SDS011;7777;52.254;9.618;2023-09-30T08:10:50;9.90;;;3.70;;
15354;SDS011;7777;52.254;9.618;2023-09-30T08:13:20;12.67;;;3.67;;
15354;SDS011;7777;52.254;9.618;2023-09-30T08:15:48;9.63;;;3.50;;
15354;SDS011;7777;52.254;9.618;2023-09-30T08:18:18;15.00;;;4.00;;
15354;SDS011;7777;52.254;9.618;2023-09-30T08:20:44;13.97;;;3.93;;
15354;SDS011;7777;52.254;9.618;2023-09-30T08:23:10;11.53;;;3.33;;
15354;SDS011;7777;52.254;9.618;2023-09-30T08:25:36;12.00;;;3.17;;
15354;SDS011;7777;52.254;9.618;2023-09-30T08:28:03;8.17;;;2.90;;
15354;SDS011;7777;52.254;9.618;2023-09-30T08:30:29;15.90;;;4.00;;
15354;SDS011;7777;52.254;9.618;2023-09-30T08:32:55;9.43;;;3.57;;
15354;SDS011;7777;52.254;9.618;2023-09-30T08:35:24;10.70;;;3.70;;
15354;SDS011;7777;52.254;9.618;2023-09-30T08:37:50;10.03;;;3.20;;
15354;SDS011;7777;52.254;9.618;2023-09-30T08:40:22;10.40;;;3.50;;
15354;SDS011;7777;52.254;9.618;2023-09-30T08:42:51;10.50;;;2.80;;
15354;SDS011;7777;52.254;9.618;2023-09-30T08:45:18;11.47;;;3.77;;
15354;SDS011;7777;52.254;9.618;2023-09-30T08:47:44;10.57;;;3.20;;
15354;SDS011;7777;52.254;9.618;2023-09-30T08:50:11;9.90;;;2.80;;
15354;SDS011;7777;52.254;9.618;2023-09-30T08:52:39;9.63;;;3.10;;
15354;SDS011;7777;52.254;9.618;2023-09-30T08:55:06;10.27;;;3.00;;
15354;SDS011;7777;52.254;9.618;2023-09-30T08:57:37;9.80;;;3.23;;
15354;SDS011;7777;52.254;9.618;2023-09-30T09:00:07;11.67;;;3.13;;
15354;SDS011;7777;52.254;9.618;2023-09-30T09:02:41;9.93;;;2.97;;
15354;SDS011;7777;52.254;9.618;2023-09-30T09:05:08;9.67;;;3.73;;
15354;SDS011;7777;52.254;9.618;2023-09-30T09:07:34;7.37;;;3.23;;
15354;SDS011;7777;52.254;9.618;2023-09-30T09:10:04;10.63;;;2.80;;
15354;SDS011;7777;52.254;9.618;2023-09-30T09:12:33;12.77;;;3.43;;
15354;SDS011;7777;52.254;9.618;2023-09-30T09:15:02;14.13;;;4.27;;
15354;SDS011;7777;52.254;9.618;2023-09-30T09:17:41;11.37;;;3.17;;
15354;SDS011;7777;52.254;9.618;2023-09-30T09:20:10;7.57;;;3.00;;
15354;SDS011;7777;52.254;9.618;2023-09-30T09:22:45;12.57;;;2.80;;
15354;SDS011;7777;52.254;9.618;2023-09-30T09:25:15;13.63;;;3.03;;
15354;SDS011;7777;52.254;9.618;2023-09-30T09:27:41;10.40;;;3.20;;
15354;SDS011;7777;52.254;9.618;2023-09-30T09:30:14;12.83;;;3.43;;
15354;SDS011;7777;52.254;9.618;2023-09-30T09:33:00;10.30;;;3.17;;
15354;SDS011;7777;52.254;9.618;2023-09-30T09:35:29;13.27;;;3.00;;
15354;SDS011;7777;52.254;9.618;2023-09-30T09:37:58;11.70;;;3.20;;
15354;SDS011;7777;52.254;9.618;2023-09-30T09:40:25;8.77;;;3.73;;
15354;SDS011;7777;52.254;9.618;2023-09-30T09:42:53;13.93;;;3.80;;
15354;SDS011;7777;52.254;9.618;2023-09-30T09:45:21;11.13;;;3.80;;
15354;SDS011;7777;52.254;9.618;2023-09-30T09:47:49;11.87;;;3.73;;
15354;SDS011;7777;52.254;9.618;2023-09-30T09:50:17;10.73;;;3.27;;
15354;SDS011;7777;52.254;9.618;2023-09-30T09:52:48;8.20;;;3.17;;
15354;SDS011;7777;52.254;9.618;2023-09-30T09:55:18;9.40;;;2.90;;
15354;SDS011;7777;52.254;9.618;2023-09-30T09:57:47;10.57;;;3.70;;
15354;SDS011;7777;52.254;9.618;2023-09-30T10:00:17;7.83;;;2.30;;
15354;SDS011;7777;52.254;9.618;2023-09-30T10:02:46;11.50;;;2.60;;
15354;SDS011;7777;52.254;9.618;2023-09-30T10:05:14;7.50;;;2.13;;
15354;SDS011;7777;52.254;9.618;2023-09-30T10:10:17;12.10;;;2.80;;
15354;SDS011;7777;52.254;9.618;2023-09-30T10:12:45;10.30;;;2.50;;
15354;SDS011;7777;52.254;9.618;2023-09-30T10:20:29;8.80;;;2.20;;
15354;SDS011;7777;52.254;9.618;2023-09-30T10:31:14;6.77;;;2.30;;
15354;SDS011;7777;52.254;9.618;2023-09-30T10:36:26;13.03;;;2.83;;
15354;SDS011;7777;52.254;9.618;2023-09-30T10:39:04;5.57;;;2.20;;
15354;SDS011;7777;52.254;9.618;2023-09-30T10:46:52;5.17;;;1.93;;
15354;SDS011;7777;52.254;9.618;2023-09-30T10:49:47;5.10;;;1.93;;
15354;SDS011;7777;52.254;9.618;2023-09-30T10:52:21;7.23;;;2.20;;
15354;SDS011;7777;52.254;9.618;2023-09-30T10:54:48;8.63;;;2.17;;
15354;SDS011;7777;52.254;9.618;2023-09-30T10:57:15;8.57;;;2.33;;
15354;SDS011;7777;52.254;9.618;2023-09-30T11:00:10;6.63;;;2.23;;
15354;SDS011;7777;52.254;9.618;2023-09-30T11:02:52;7.33;;;2.10;;
15354;SDS011;7777;52.254;9.618;2023-09-30T11:05:18;7.77;;;1.87;;
15354;SDS011;7777;52.254;9.618;2023-09-30T11:07:47;6.90;;;2.20;;
15354;SDS011;7777;52.254;9.618;2023-09-30T11:10:19;6.47;;;2.30;;
15354;SDS011;7777;52.254;9.618;2023-09-30T11:12:55;8.20;;;2.83;;
15354;SDS011;7777;52.254;9.618;2023-09-30T11:15:22;4.97;;;1.87;;
15354;SDS011;7777;52.254;9.618;2023-09-30T11:17:49;6.47;;;2.00;;
15354;SDS011;7777;52.254;9.618;2023-09-30T11:20:17;6.20;;;2.03;;
15354;SDS011;7777;52.254;9.618;2023-09-30T11:22:44;7.57;;;2.87;;
15354;SDS011;7777;52.254;9.618;2023-09-30T11:25:16;8.27;;;2.23;;
15354;SDS011;7777;52.254;9.618;2023-09-30T11:27:44;10.47;;;2.47;;
15354;SDS011;7777;52.254;9.618;2023-09-30T11:30:12;11.93;;;3.20;;
15354;SDS011;7777;52.254;9.618;2023-09-30T11:32:40;5.43;;;1.83;;
15354;SDS011;7777;52.254;9.618;2023-09-30T11:35:10;9.03;;;2.53;;
15354;SDS011;7777;52.254;9.618;2023-09-30T11:37:48;5.00;;;1.77;;
15354;SDS011;7777;52.254;9.618;2023-09-30T11:40:17;6.70;;;2.07;;
15354;SDS011;7777;52.254;9.618;2023-09-30T11:45:34;5.70;;;2.33;;
15354;SDS011;7777;52.254;9.618;2023-09-30T11:47:59;7.20;;;2.00;;
15354;SDS011;7777;52.254;9.618;2023-09-30T11:50:44;5.97;;;1.97;;
15354;SDS011;7777;52.254;9.618;2023-09-30T11:53:16;6.60;;;1.90;;
15354;SDS011;7777;52.254;9.618;2023-09-30T11:55:44;6.97;;;2.20;;
15354;SDS011;7777;52.254;9.618;2023-09-30T11:58:11;6.23;;;1.90;;
15354;SDS011;7777;52.254;9.618;2023-09-30T12:00:43;8.40;;;2.23;;
15354;SDS011;7777;52.254;9.618;2023-09-30T12:03:17;4.10;;;1.77;;
15354;SDS011;7777;52.254;9.618;2023-09-30T12:05:48;7.67;;;2.30;;
15354;SDS011;7777;52.254;9.618;2023-09-30T12:08:14;5.47;;;2.10;;
15354;SDS011;7777;52.254;9.618;2023-09-30T12:10:40;4.77;;;1.67;;
15354;SDS011;7777;52.254;9.618;2023-09-30T12:13:05;12.07;;;2.60;;
15354;SDS011;7777;52.254;9.618;2023-09-30T12:15:31;7.07;;;2.20;;
15354;SDS011;7777;52.254;9.618;2023-09-30T12:17:57;4.23;;;1.67;;
15354;SDS011;7777;52.254;9.618;2023-09-30T12:20:23;5.63;;;2.23;;
15354;SDS011;7777;52.254;9.618;2023-09-30T12:22:50;6.43;;;1.97;;
15354;SDS011;7777;52.254;9.618;2023-09-30T12:25:17;11.63;;;2.40;;
15354;SDS011;7777;52.254;9.618;2023-09-30T12:27:46;6.67;;;1.93;;
15354;SDS011;7777;52.254;9.618;2023-09-30T12:30:13;7.73;;;2.60;;
15354;SDS011;7777;52.254;9.618;2023-09-30T12:32:39;8.83;;;1.97;;
15354;SDS011;7777;52.254;9.618;2023-09-30T12:35:05;6.53;;;2.40;;
15354;SDS011;7777;52.254;9.618;2023-09-30T12:37:32;5.83;;;2.13;;
15354;SDS011;7777;52.254;9.618;2023-09-30T12:39:58;8.97;;;2.70;;
15354;SDS011;7777;52.254;9.618;2023-09-30T12:42:24;4.33;;;1.53;;
15354;SDS011;7777;52.254;9.618;2023-09-30T12:44:50;6.83;;;2.23;;
15354;SDS011;7777;52.254;9.618;2023-09-30T12:47:16;7.10;;;1.83;;
15354;SDS011;7777;52.254;9.618;2023-09-30T12:49:41;6.30;;;2.07;;
15354;SDS011;7777;52.254;9.618;2023-09-30T12:52:07;5.90;;;2.13;;
15354;SDS011;7777;52.254;9.618;2023-09-30T12:54:33;5.47;;;2.30;;
15354;SDS011;7777;52.254;9.618;2023-09-30T12:56:59;5.57;;;1.87;;
15354;SDS011;7777;52.254;9.618;2023-09-30T12:59:25;7.43;;;2.10;;
15354;SDS011;7777;52.254;9.618;2023-09-30T13:01:51;5.03;;;1.90;;
15354;SDS011;7777;52.254;9.618;2023-09-30T13:04:17;11.47;;;2.57;;
15354;SDS011;7777;52.254;9.618;2023-09-30T13:06:43;5.67;;;2.23;;
15354;SDS011;7777;52.254;9.618;2023-09-30T13:09:10;6.17;;;2.10;;
15354;SDS011;7777;52.254;9.618;2023-09-30T13:11:37;6.97;;;2.37;;
15354;SDS011;7777;52.254;9.618;2023-09-30T13:14:03;8.20;;;2.57;;
15354;SDS011;7777;52.254;9.618;2023-09-30T13:16:29;7.47;;;2.77;;
15354;SDS011;7777;52.254;9.618;2023-09-30T13:18:55;6.47;;;2.43;;
15354;SDS011;7777;52.254;9.618;2023-09-30T13:21:21;6.33;;;2.47;;
15354;SDS011;7777;52.254;9.618;2023-09-30T13:23:47;6.00;;;2.63;;
15354;SDS011;7777;52.254;9.618;2023-09-30T13:26:13;10.77;;;2.13;;
15354;SDS011;7777;52.254;9.618;2023-09-30T13:28:38;4.53;;;1.90;;
15354;SDS011;7777;52.254;9.618;2023-09-30T13:31:04;6.73;;;2.10;;
15354;SDS011;7777;52.254;9.618;2023-09-30T13:33:30;8.60;;;2.30;;
15354;SDS011;7777;52.254;9.618;2023-09-30T13:35:56;7.17;;;2.33;;
15354;SDS011;7777;52.254;9.618;2023-09-30T13:38:22;7.37;;;2.50;;
15354;SDS011;7777;52.254;9.618;2023-09-30T13:40:48;5.43;;;2.30;;
15354;SDS011;7777;52.254;9.618;2023-09-30T13:43:14;7.57;;;2.03;;
15354;SDS011;7777;52.254;9.618;2023-09-30T13:45:40;8.30;;;2.80;;
15354;SDS011;7777;52.254;9.618;2023-09-30T13:48:06;7.33;;;2.20;;
15354;SDS011;7777;52.254;9.618;2023-09-30T13:50:31;7.57;;;2.53;;
15354;SDS011;7777;52.254;9.618;2023-09-30T13:52:57;6.43;;;1.67;;
15354;SDS011;7777;52.254;9.618;2023-09-30T13:55:25;5.87;;;2.07;;
15354;SDS011;7777;52.254;9.618;2023-09-30T13:57:51;7.23;;;2.10;;
15354;SDS011;7777;52.254;9.618;2023-09-30T14:00:17;6.83;;;2.27;;
15354;SDS011;7777;52.254;9.618;2023-09-30T14:02:43;10.80;;;2.67;;
15354;SDS011;7777;52.254;9.618;2023-09-30T14:05:09;6.83;;;2.60;;
15354;SDS011;7777;52.254;9.618;2023-09-30T14:07:38;6.23;;;2.30;;
15354;SDS011;7777;52.254;9.618;2023-09-30T14:10:05;10.17;;;2.73;;
15354;SDS011;7777;52.254;9.618;2023-09-30T14:12:32;7.83;;;2.33;;
15354;SDS011;7777;52.254;9.618;2023-09-30T14:14:59;5.03;;;2.20;;
15354;SDS011;7777;52.254;9.618;2023-09-30T14:17:25;8.63;;;2.30;;
15354;SDS011;7777;52.254;9.618;2023-09-30T14:19:51;6.07;;;1.90;;
15354;SDS011;7777;52.254;9.618;2023-09-30T14:22:16;5.30;;;2.07;;
15354;SDS011;7777;52.254;9.618;2023-09-30T14:24:43;5.57;;;2.17;;
15354;SDS011;7777;52.254;9.618;2023-09-30T14:27:10;6.67;;;2.10;;
15354;SDS011;7777;52.254;9.618;2023-09-30T14:29:35;4.10;;;1.63;;
15354;SDS011;7777;52.254;9.618;2023-09-30T14:32:01;6.30;;;2.10;;
15354;SDS011;7777;52.254;9.618;2023-09-30T14:34:27;6.20;;;2.33;;
15354;SDS011;7777;52.254;9.618;2023-09-30T14:36:53;8.67;;;2.30;;
15354;SDS011;7777;52.254;9.618;2023-09-30T14:39:19;5.70;;;1.77;;
15354;SDS011;7777;52.254;9.618;2023-09-30T14:41:45;6.20;;;1.83;;
15354;SDS011;7777;52.254;9.618;2023-09-30T14:44:11;8.23;;;2.37;;
15354;SDS011;7777;52.254;9.618;2023-09-30T14:46:40;6.13;;;2.10;;
15354;SDS011;7777;52.254;9.618;2023-09-30T14:49:06;5.63;;;2.10;;
15354;SDS011;7777;52.254;9.618;2023-09-30T14:51:35;6.67;;;2.30;;
15354;SDS011;7777;52.254;9.618;2023-09-30T14:54:02;7.27;;;2.53;;
15354;SDS011;7777;52.254;9.618;2023-09-30T14:56:30;6.07;;;2.23;;
15354;SDS011;7777;52.254;9.618;2023-09-30T14:58:56;13.97;;;2.63;;
15354;SDS011;7777;52.254;9.618;2023-09-30T15:01:21;4.90;;;2.03;;
15354;SDS011;7777;52.254;9.618;2023-09-30T15:03:47;9.87;;;2.87;;
15354;SDS011;7777;52.254;9.618;2023-09-30T15:06:13;4.43;;;1.93;;
15354;SDS011;7777;52.254;9.618;2023-09-30T15:08:40;7.47;;;1.90;;
15354;SDS011;7777;52.254;9.618;2023-09-30T15:11:11;5.00;;;2.10;;
15354;SDS011;7777;52.254;9.618;2023-09-30T15:13:39;8.37;;;2.70;;
15354;SDS011;7777;52.254;9.618;2023-09-30T15:16:13;4.17;;;1.87;;
15354;SDS011;7777;52.254;9.618;2023-09-30T15:18:46;9.20;;;2.67;;
15354;SDS011;7777;52.254;9.618;2023-09-30T15:21:13;6.00;;;2.10;;
15354;SDS011;7777;52.254;9.618;2023-09-30T15:23:40;5.03;;;2.10;;
15354;SDS011;7777;52.254;9.618;2023-09-30T15:26:07;4.33;;;1.90;;